createdAt,value
2018-11-22T12:16:35.949Z,63.40
2018-11-22T12:19:03.553Z,63.30
2018-11-22T12:21:31.179Z,63.40
2018-11-22T12:23:58.740Z,63.40
2018-11-22T12:26:26.377Z,63.00
2018-11-22T12:28:53.943Z,63.20
2018-11-22T12:31:21.493Z,63.90
2018-11-22T12:33:54.783Z,63.40
2018-11-22T12:36:23.914Z,64.10
2018-11-22T12:38:51.675Z,64.20
2018-11-22T12:41:19.280Z,64.20
2018-11-22T12:43:46.908Z,64.40
2018-11-22T12:46:14.425Z,64.50
2018-11-22T12:48:42.434Z,64.40
2018-11-22T12:51:10.104Z,64.20
2018-11-22T12:53:37.720Z,64.40
2018-11-22T12:56:05.444Z,64.90
2018-11-22T12:58:33.110Z,64.30
2018-11-22T13:01:01.352Z,64.00
2018-11-22T13:03:28.985Z,63.70
2018-11-22T13:05:56.684Z,64.20
2018-11-22T13:08:24.271Z,63.60
2018-11-22T13:10:51.805Z,63.40
2018-11-22T13:13:19.429Z,63.00
2018-11-22T13:15:47.018Z,62.90
2018-11-22T13:18:14.584Z,62.00
2018-11-22T13:20:42.223Z,60.40
2018-11-22T13:23:09.766Z,59.00
2018-11-22T13:25:37.357Z,58.90
2018-11-22T13:28:05.126Z,59.70
2018-11-22T13:30:32.702Z,59.30
2018-11-22T13:33:00.295Z,59.70
2018-11-22T13:35:27.893Z,60.10
2018-11-22T13:37:56.106Z,60.20
2018-11-22T13:40:23.791Z,60.70
2018-11-22T13:42:52.020Z,60.80
2018-11-22T13:45:21.708Z,60.20
2018-11-22T13:47:50.385Z,59.50
2018-11-22T13:50:20.349Z,59.50
2018-11-22T13:52:49.492Z,59.60
2018-11-22T13:55:17.181Z,60.10
2018-11-22T13:57:44.719Z,60.20
2018-11-22T14:00:15.762Z,60.00
2018-11-22T14:02:43.422Z,59.70
2018-11-22T14:05:11.601Z,59.70
2018-11-22T14:07:38.616Z,60.00
2018-11-22T14:10:09.011Z,60.40
2018-11-22T14:12:36.616Z,60.20
2018-11-22T14:15:06.621Z,60.50
2018-11-22T14:17:34.293Z,60.50
2018-11-22T14:20:02.067Z,61.40
2018-11-22T14:22:29.633Z,62.00
2018-11-22T14:24:57.277Z,62.30
2018-11-22T14:27:24.870Z,62.70
2018-11-22T14:29:52.569Z,62.50
2018-11-22T14:32:20.237Z,62.90
2018-11-22T14:34:47.751Z,63.30
2018-11-22T14:37:15.360Z,63.50
2018-11-22T14:39:42.935Z,63.60
2018-11-22T14:42:10.548Z,64.30
2018-11-22T14:44:38.115Z,64.80
2018-11-22T14:47:05.699Z,65.30
2018-11-22T14:49:33.259Z,65.90
2018-11-22T14:52:00.848Z,67.00
2018-11-22T14:54:28.489Z,66.90
2018-11-22T14:56:56.022Z,66.60
2018-11-22T14:59:23.622Z,66.50
2018-11-22T15:01:51.278Z,66.10
2018-11-22T15:04:18.855Z,65.90
2018-11-22T15:06:46.427Z,66.10
2018-11-22T15:09:14.138Z,66.00
2018-11-22T15:11:41.759Z,66.00
2018-11-22T15:14:10.294Z,66.10
2018-11-22T15:16:37.886Z,66.40
2018-11-22T15:19:05.678Z,66.60
2018-11-22T15:21:33.265Z,66.40
2018-11-22T15:24:00.868Z,66.20
2018-11-22T15:26:28.441Z,65.90
2018-11-22T15:28:56.038Z,65.90
2018-11-22T15:31:23.630Z,66.10
2018-11-22T15:33:51.225Z,66.40
2018-11-22T15:36:18.840Z,66.30
2018-11-22T15:38:46.445Z,66.70
2018-11-22T15:41:14.061Z,66.80
2018-11-22T15:43:41.650Z,67.00
2018-11-22T15:46:09.236Z,67.30
2018-11-22T15:48:36.883Z,66.90
2018-11-22T15:51:04.679Z,67.10
2018-11-22T15:53:32.613Z,67.00
2018-11-22T15:56:00.313Z,66.90
2018-11-22T15:58:27.973Z,66.70
2018-11-22T16:00:55.767Z,66.80
2018-11-22T16:03:23.432Z,66.70
2018-11-22T16:05:51.032Z,67.00
2018-11-22T16:08:18.876Z,67.10
2018-11-22T16:10:46.482Z,67.20
2018-11-22T16:13:14.176Z,67.20
2018-11-22T16:15:45.911Z,67.40
2018-11-22T16:18:13.595Z,67.40
2018-11-22T16:20:41.200Z,67.70
2018-11-22T16:23:09.478Z,67.40
2018-11-22T16:25:37.061Z,66.90
2018-11-22T16:28:05.312Z,66.90
2018-11-22T16:30:33.623Z,67.10
2018-11-22T16:33:01.261Z,67.40
2018-11-22T16:35:33.329Z,67.50
2018-11-22T16:37:57.061Z,68.20
2018-11-22T16:40:26.103Z,68.00
2018-11-22T16:42:55.291Z,68.00
2018-11-22T16:45:26.036Z,68.10
2018-11-22T16:47:53.892Z,68.00
2018-11-22T16:50:22.889Z,68.20
2018-11-22T16:52:50.647Z,67.90
2018-11-22T16:55:18.650Z,67.90
2018-11-22T16:57:47.452Z,68.00
2018-11-22T17:00:19.101Z,68.00
2018-11-22T17:02:47.729Z,67.50
2018-11-22T17:05:15.859Z,67.40
2018-11-22T17:07:44.838Z,67.50
2018-11-22T17:10:15.394Z,67.60
2018-11-22T17:12:43.824Z,67.70
2018-11-22T17:15:15.210Z,67.90
2018-11-22T17:17:43.231Z,67.60
2018-11-22T17:20:12.563Z,67.20
2018-11-22T17:22:40.714Z,67.20
2018-11-22T17:25:11.377Z,67.20
2018-11-22T17:27:39.295Z,67.20
2018-11-22T17:30:11.395Z,67.30
2018-11-22T17:32:37.203Z,67.30
2018-11-22T17:35:05.208Z,67.40
2018-11-22T17:37:32.911Z,67.50
2018-11-22T17:40:00.537Z,67.60
2018-11-22T17:42:28.180Z,68.30
2018-11-22T17:44:55.908Z,68.20
2018-11-22T17:47:23.491Z,68.00
2018-11-22T17:49:51.121Z,68.10
2018-11-22T17:52:18.743Z,67.80
2018-11-22T17:54:46.296Z,67.90
2018-11-22T17:57:13.920Z,67.70
2018-11-22T17:59:41.614Z,67.30
2018-11-22T18:02:09.358Z,67.40
2018-11-22T18:04:36.915Z,67.00
2018-11-22T18:07:04.856Z,67.50
2018-11-22T18:09:32.478Z,67.30
2018-11-22T18:12:00.080Z,67.40
2018-11-22T18:14:27.746Z,67.70
2018-11-22T18:16:55.386Z,67.70
2018-11-22T18:19:23.074Z,67.80
2018-11-22T18:21:50.725Z,68.00
2018-11-22T18:24:18.346Z,67.90
2018-11-22T18:26:46.150Z,68.00
2018-11-22T18:29:13.811Z,68.10
2018-11-22T18:31:41.567Z,68.00
2018-11-22T18:34:09.297Z,68.00
2018-11-22T18:36:36.920Z,68.00
2018-11-22T18:39:06.964Z,68.10
2018-11-22T18:41:34.644Z,68.00
2018-11-22T18:44:02.340Z,67.50
2018-11-22T18:46:30.058Z,67.40
2018-11-22T18:48:57.714Z,67.50
2018-11-22T18:51:25.396Z,67.70
2018-11-22T18:53:53.092Z,67.90
2018-11-22T18:56:20.800Z,68.10
2018-11-22T18:58:48.506Z,68.10
2018-11-22T19:01:16.381Z,68.10
2018-11-22T19:03:44.144Z,68.10
2018-11-22T19:06:11.924Z,68.50
2018-11-22T19:08:39.760Z,68.20
2018-11-22T19:11:07.516Z,68.40
2018-11-22T19:13:35.189Z,68.40
2018-11-22T19:16:02.956Z,68.40
2018-11-22T19:18:30.832Z,68.30
2018-11-22T19:20:58.497Z,68.30
2018-11-22T19:23:26.190Z,67.80
2018-11-22T19:25:53.848Z,67.80
2018-11-22T19:28:21.712Z,67.60
2018-11-22T19:30:49.433Z,67.80
2018-11-22T19:33:18.325Z,67.70
2018-11-22T19:35:47.894Z,68.00
2018-11-22T19:38:15.619Z,68.00
2018-11-22T19:40:43.730Z,68.10
2018-11-22T19:43:12.019Z,68.00
2018-11-22T19:45:43.129Z,67.90
2018-11-22T19:48:10.719Z,68.10
2018-11-22T19:50:38.547Z,68.00
2018-11-22T19:53:08.097Z,68.00
2018-11-22T19:55:36.499Z,68.10
2018-11-22T19:58:05.849Z,68.20
2018-11-22T20:00:33.576Z,67.80
2018-11-22T20:03:02.645Z,67.70
2018-11-22T20:05:31.628Z,67.70
2018-11-22T20:08:00.701Z,67.50
2018-11-22T20:10:30.655Z,67.60
2018-11-22T20:12:58.206Z,67.20
2018-11-22T20:15:25.984Z,67.20
2018-11-22T20:17:54.064Z,67.30
2018-11-22T20:20:22.350Z,67.30
2018-11-22T20:22:50.220Z,67.40
2018-11-22T20:25:17.853Z,67.20
2018-11-22T20:27:45.687Z,67.20
2018-11-22T20:30:24.331Z,67.30
2018-11-22T20:32:52.003Z,67.50
2018-11-22T20:35:20.364Z,67.50
2018-11-22T20:37:48.683Z,67.80
2018-11-22T20:40:17.546Z,68.00
2018-11-22T20:42:45.229Z,68.00
2018-11-22T20:45:14.490Z,67.90
2018-11-22T20:47:42.949Z,67.80
2018-11-22T20:50:13.033Z,67.30
2018-11-22T20:52:40.736Z,67.40
2018-11-22T20:55:12.161Z,67.40
2018-11-22T20:57:39.792Z,67.20
2018-11-22T21:00:11.263Z,66.90
2018-11-22T21:02:38.929Z,66.90
2018-11-22T21:05:07.557Z,67.50
2018-11-22T21:07:35.181Z,67.30
2018-11-22T21:10:02.911Z,67.40
2018-11-22T21:12:30.485Z,67.10
2018-11-22T21:14:58.174Z,67.10
2018-11-22T21:17:25.775Z,67.20
2018-11-22T21:19:53.402Z,67.80
2018-11-22T21:22:21.012Z,67.60
2018-11-22T21:24:48.712Z,67.50
2018-11-22T21:27:16.545Z,67.20
2018-11-22T21:29:44.291Z,67.30
2018-11-22T21:32:12.099Z,67.30
2018-11-22T21:34:39.834Z,67.50
2018-11-22T21:37:07.554Z,67.40
2018-11-22T21:39:35.401Z,67.30
2018-11-22T21:42:03.049Z,67.20
2018-11-22T21:44:30.681Z,67.70
2018-11-22T21:46:58.314Z,67.70
2018-11-22T21:49:25.942Z,68.10
2018-11-22T21:51:53.506Z,67.70
2018-11-22T21:54:21.156Z,67.50
2018-11-22T21:56:48.814Z,67.40
2018-11-22T21:59:16.343Z,67.10
2018-11-22T22:01:43.972Z,67.40
2018-11-22T22:04:11.563Z,67.50
2018-11-22T22:06:39.184Z,67.50
2018-11-22T22:09:07.746Z,67.50
2018-11-22T22:11:35.421Z,67.40
2018-11-22T22:14:03.068Z,67.20
2018-11-22T22:16:30.670Z,67.20
2018-11-22T22:18:58.289Z,67.00
2018-11-22T22:21:25.915Z,67.10
2018-11-22T22:23:53.406Z,67.10
2018-11-22T22:26:21.105Z,67.20
2018-11-22T22:28:48.729Z,67.40
2018-11-22T22:31:16.239Z,67.50
2018-11-22T22:33:43.823Z,67.40
2018-11-22T22:36:11.472Z,67.60
2018-11-22T22:38:39.091Z,67.90
2018-11-22T22:41:06.688Z,67.90
2018-11-22T22:43:34.283Z,68.20
2018-11-22T22:46:01.852Z,68.30
2018-11-22T22:48:29.485Z,68.60
2018-11-22T22:50:57.030Z,68.60
2018-11-22T22:53:24.570Z,68.60
2018-11-22T22:55:52.109Z,68.70
2018-11-22T22:58:19.669Z,68.50
2018-11-22T23:00:47.651Z,68.70
2018-11-22T23:03:15.524Z,68.90
2018-11-22T23:05:43.058Z,68.90
2018-11-22T23:08:10.687Z,69.00
2018-11-22T23:10:38.318Z,69.20
2018-11-22T23:13:06.419Z,69.00
2018-11-22T23:15:33.995Z,69.00
2018-11-22T23:18:01.617Z,69.00
2018-11-22T23:20:30.445Z,69.20
2018-11-22T23:22:58.026Z,69.10
2018-11-22T23:25:26.437Z,69.10
2018-11-22T23:27:54.033Z,69.20
2018-11-22T23:30:26.584Z,69.50
2018-11-22T23:32:56.450Z,69.50
2018-11-22T23:35:23.153Z,70.10
2018-11-22T23:37:51.107Z,70.50
2018-11-22T23:40:19.998Z,70.40
2018-11-22T23:42:47.576Z,70.40
2018-11-22T23:45:17.161Z,70.50
2018-11-22T23:47:45.108Z,71.20
2018-11-22T23:50:15.432Z,70.80
2018-11-22T23:52:44.159Z,70.70
2018-11-22T23:55:11.774Z,70.80
2018-11-22T23:57:39.770Z,70.90
